sensor_id;sensor_type;location;lat;lon;timestamp;P1;durP1;ratioP1;P2;durP2;ratioP2
56043;SDS011;41912;51.022;3.664;2024-03-29T00:00:52;8.48;;;1.83;;
56043;SDS011;41912;51.022;3.664;2024-03-29T00:03:18;7.75;;;2.00;;
56043;SDS011;41912;51.022;3.664;2024-03-29T00:05:44;7.70;;;1.83;;
56043;SDS011;41912;51.022;3.664;2024-03-29T00:08:10;11.70;;;1.75;;
56043;SDS011;41912;51.022;3.664;2024-03-29T00:10:35;10.82;;;1.70;;
56043;SDS011;41912;51.022;3.664;2024-03-29T00:13:01;7.57;;;1.58;;
56043;SDS011;41912;51.022;3.664;2024-03-29T00:15:27;7.57;;;1.70;;
56043;SDS011;41912;51.022;3.664;2024-03-29T00:17:52;13.15;;;1.63;;
56043;SDS011;41912;51.022;3.664;2024-03-29T00:20:18;10.23;;;1.75;;
56043;SDS011;41912;51.022;3.664;2024-03-29T00:22:46;8.57;;;1.55;;
56043;SDS011;41912;51.022;3.664;2024-03-29T00:25:12;8.68;;;1.50;;
56043;SDS011;41912;51.022;3.664;2024-03-29T00:27:37;12.68;;;1.95;;
56043;SDS011;41912;51.022;3.664;2024-03-29T00:30:03;9.90;;;2.30;;
56043;SDS011;41912;51.022;3.664;2024-03-29T00:32:29;5.70;;;1.42;;
56043;SDS011;41912;51.022;3.664;2024-03-29T00:34:55;9.50;;;1.88;;
56043;SDS011;41912;51.022;3.664;2024-03-29T00:37:23;12.32;;;2.10;;
56043;SDS011;41912;51.022;3.664;2024-03-29T00:39:49;6.22;;;1.40;;
56043;SDS011;41912;51.022;3.664;2024-03-29T00:42:14;12.55;;;2.38;;
56043;SDS011;41912;51.022;3.664;2024-03-29T00:44:41;8.05;;;1.92;;
56043;SDS011;41912;51.022;3.664;2024-03-29T00:47:08;10.38;;;1.40;;
56043;SDS011;41912;51.022;3.664;2024-03-29T00:49:34;10.10;;;1.40;;
56043;SDS011;41912;51.022;3.664;2024-03-29T00:52:00;7.72;;;1.63;;
56043;SDS011;41912;51.022;3.664;2024-03-29T00:54:27;9.55;;;1.50;;
56043;SDS011;41912;51.022;3.664;2024-03-29T00:56:53;10.98;;;1.70;;
56043;SDS011;41912;51.022;3.664;2024-03-29T00:59:18;9.82;;;1.70;;
56043;SDS011;41912;51.022;3.664;2024-03-29T01:01:45;5.70;;;0.98;;
56043;SDS011;41912;51.022;3.664;2024-03-29T01:04:11;4.85;;;1.15;;
56043;SDS011;41912;51.022;3.664;2024-03-29T01:06:37;7.28;;;1.58;;
56043;SDS011;41912;51.022;3.664;2024-03-29T01:09:03;5.30;;;1.45;;
56043;SDS011;41912;51.022;3.664;2024-03-29T01:11:29;5.40;;;1.65;;
56043;SDS011;41912;51.022;3.664;2024-03-29T01:13:55;10.23;;;1.55;;
56043;SDS011;41912;51.022;3.664;2024-03-29T01:16:21;4.57;;;1.20;;
56043;SDS011;41912;51.022;3.664;2024-03-29T01:18:46;7.88;;;1.50;;
56043;SDS011;41912;51.022;3.664;2024-03-29T01:21:12;11.45;;;2.03;;
56043;SDS011;41912;51.022;3.664;2024-03-29T01:23:38;5.05;;;1.20;;
56043;SDS011;41912;51.022;3.664;2024-03-29T01:26:05;7.88;;;1.42;;
56043;SDS011;41912;51.022;3.664;2024-03-29T01:28:31;4.43;;;1.10;;
56043;SDS011;41912;51.022;3.664;2024-03-29T01:30:57;3.55;;;1.23;;
56043;SDS011;41912;51.022;3.664;2024-03-29T01:33:23;7.40;;;1.52;;
56043;SDS011;41912;51.022;3.664;2024-03-29T01:35:49;4.88;;;1.23;;
56043;SDS011;41912;51.022;3.664;2024-03-29T01:38:15;5.03;;;1.20;;
56043;SDS011;41912;51.022;3.664;2024-03-29T01:40:41;6.55;;;2.17;;
56043;SDS011;41912;51.022;3.664;2024-03-29T01:43:07;4.63;;;1.20;;
56043;SDS011;41912;51.022;3.664;2024-03-29T01:45:34;7.03;;;1.25;;
56043;SDS011;41912;51.022;3.664;2024-03-29T01:48:03;10.02;;;1.30;;
56043;SDS011;41912;51.022;3.664;2024-03-29T01:50:29;8.18;;;1.70;;
56043;SDS011;41912;51.022;3.664;2024-03-29T01:52:56;5.25;;;1.00;;
56043;SDS011;41912;51.022;3.664;2024-03-29T01:55:22;5.47;;;1.38;;
56043;SDS011;41912;51.022;3.664;2024-03-29T01:57:48;3.70;;;1.05;;
56043;SDS011;41912;51.022;3.664;2024-03-29T02:00:15;3.45;;;0.85;;
56043;SDS011;41912;51.022;3.664;2024-03-29T02:02:41;8.23;;;1.10;;
56043;SDS011;41912;51.022;3.664;2024-03-29T02:05:07;5.40;;;1.08;;
56043;SDS011;41912;51.022;3.664;2024-03-29T02:07:33;4.63;;;0.93;;
56043;SDS011;41912;51.022;3.664;2024-03-29T02:09:59;2.47;;;0.70;;
56043;SDS011;41912;51.022;3.664;2024-03-29T02:12:25;5.40;;;0.90;;
56043;SDS011;41912;51.022;3.664;2024-03-29T02:14:50;2.78;;;0.60;;
56043;SDS011;41912;51.022;3.664;2024-03-29T02:17:16;2.47;;;0.70;;
56043;SDS011;41912;51.022;3.664;2024-03-29T02:19:41;1.75;;;0.70;;
56043;SDS011;41912;51.022;3.664;2024-03-29T02:22:07;7.72;;;0.68;;
56043;SDS011;41912;51.022;3.664;2024-03-29T02:24:36;2.78;;;0.60;;
56043;SDS011;41912;51.022;3.664;2024-03-29T02:27:02;4.22;;;0.68;;
56043;SDS011;41912;51.022;3.664;2024-03-29T02:29:29;6.45;;;1.10;;
56043;SDS011;41912;51.022;3.664;2024-03-29T02:31:56;5.45;;;0.60;;
56043;SDS011;41912;51.022;3.664;2024-03-29T02:34:21;7.53;;;1.10;;
56043;SDS011;41912;51.022;3.664;2024-03-29T02:36:48;3.75;;;0.63;;
56043;SDS011;41912;51.022;3.664;2024-03-29T02:39:14;5.13;;;0.70;;
56043;SDS011;41912;51.022;3.664;2024-03-29T02:41:39;2.33;;;0.98;;
56043;SDS011;41912;51.022;3.664;2024-03-29T02:44:05;4.60;;;0.85;;
56043;SDS011;41912;51.022;3.664;2024-03-29T02:46:30;3.13;;;0.43;;
56043;SDS011;41912;51.022;3.664;2024-03-29T02:48:56;2.22;;;0.63;;
56043;SDS011;41912;51.022;3.664;2024-03-29T02:51:22;1.75;;;0.60;;
56043;SDS011;41912;51.022;3.664;2024-03-29T02:53:47;2.55;;;0.50;;
56043;SDS011;41912;51.022;3.664;2024-03-29T02:56:13;1.75;;;0.43;;
56043;SDS011;41912;51.022;3.664;2024-03-29T02:58:46;1.42;;;0.60;;
56043;SDS011;41912;51.022;3.664;2024-03-29T03:01:11;2.75;;;0.68;;
56043;SDS011;41912;51.022;3.664;2024-03-29T03:03:37;0.57;;;0.45;;
56043;SDS011;41912;51.022;3.664;2024-03-29T03:06:03;2.88;;;0.65;;
56043;SDS011;41912;51.022;3.664;2024-03-29T03:08:29;3.55;;;0.82;;
56043;SDS011;41912;51.022;3.664;2024-03-29T03:11:13;4.93;;;1.17;;
56043;SDS011;41912;51.022;3.664;2024-03-29T03:13:39;3.47;;;0.82;;
56043;SDS011;41912;51.022;3.664;2024-03-29T03:16:05;3.63;;;0.68;;
56043;SDS011;41912;51.022;3.664;2024-03-29T03:18:30;0.98;;;0.60;;
56043;SDS011;41912;51.022;3.664;2024-03-29T03:20:56;5.07;;;0.80;;
56043;SDS011;41912;51.022;3.664;2024-03-29T03:23:23;2.55;;;0.85;;
56043;SDS011;41912;51.022;3.664;2024-03-29T03:25:56;3.65;;;0.95;;
56043;SDS011;41912;51.022;3.664;2024-03-29T03:28:23;2.67;;;0.63;;
56043;SDS011;41912;51.022;3.664;2024-03-29T03:30:49;3.42;;;0.68;;
56043;SDS011;41912;51.022;3.664;2024-03-29T03:33:15;1.45;;;0.82;;
56043;SDS011;41912;51.022;3.664;2024-03-29T03:35:42;4.15;;;0.88;;
56043;SDS011;41912;51.022;3.664;2024-03-29T03:38:08;4.75;;;1.00;;
56043;SDS011;41912;51.022;3.664;2024-03-29T03:40:37;3.35;;;1.00;;
56043;SDS011;41912;51.022;3.664;2024-03-29T03:43:03;3.40;;;0.73;;
56043;SDS011;41912;51.022;3.664;2024-03-29T03:45:37;4.05;;;0.93;;
56043;SDS011;41912;51.022;3.664;2024-03-29T03:48:04;3.33;;;0.93;;
56043;SDS011;41912;51.022;3.664;2024-03-29T03:50:31;3.53;;;1.05;;
56043;SDS011;41912;51.022;3.664;2024-03-29T03:52:57;3.15;;;0.90;;
56043;SDS011;41912;51.022;3.664;2024-03-29T03:55:23;5.18;;;1.20;;
56043;SDS011;41912;51.022;3.664;2024-03-29T03:57:49;2.03;;;1.00;;
56043;SDS011;41912;51.022;3.664;2024-03-29T04:00:15;3.35;;;1.00;;
56043;SDS011;41912;51.022;3.664;2024-03-29T04:02:42;5.00;;;1.45;;
56043;SDS011;41912;51.022;3.664;2024-03-29T04:05:13;4.20;;;1.02;;
56043;SDS011;41912;51.022;3.664;2024-03-29T04:07:39;2.83;;;1.02;;
56043;SDS011;41912;51.022;3.664;2024-03-29T04:10:04;6.05;;;1.20;;
56043;SDS011;41912;51.022;3.664;2024-03-29T04:12:30;2.97;;;1.30;;
56043;SDS011;41912;51.022;3.664;2024-03-29T04:14:56;4.53;;;1.60;;
56043;SDS011;41912;51.022;3.664;2024-03-29T04:17:22;3.47;;;0.98;;
56043;SDS011;41912;51.022;3.664;2024-03-29T04:19:48;9.65;;;1.00;;
56043;SDS011;41912;51.022;3.664;2024-03-29T04:22:14;5.20;;;1.00;;
56043;SDS011;41912;51.022;3.664;2024-03-29T04:24:39;2.53;;;1.25;;
56043;SDS011;41912;51.022;3.664;2024-03-29T04:27:05;3.60;;;0.80;;
56043;SDS011;41912;51.022;3.664;2024-03-29T04:29:31;4.40;;;1.85;;
56043;SDS011;41912;51.022;3.664;2024-03-29T04:31:56;4.20;;;1.38;;
56043;SDS011;41912;51.022;3.664;2024-03-29T04:34:22;2.38;;;0.85;;
56043;SDS011;41912;51.022;3.664;2024-03-29T04:36:47;3.13;;;0.98;;
56043;SDS011;41912;51.022;3.664;2024-03-29T04:39:13;6.82;;;1.10;;
56043;SDS011;41912;51.022;3.664;2024-03-29T04:41:39;3.70;;;1.10;;
56043;SDS011;41912;51.022;3.664;2024-03-29T04:44:04;4.55;;;1.13;;
56043;SDS011;41912;51.022;3.664;2024-03-29T04:46:30;3.70;;;0.88;;
56043;SDS011;41912;51.022;3.664;2024-03-29T04:48:57;4.57;;;1.17;;
56043;SDS011;41912;51.022;3.664;2024-03-29T04:51:22;4.00;;;1.33;;
56043;SDS011;41912;51.022;3.664;2024-03-29T04:53:48;2.83;;;0.88;;
56043;SDS011;41912;51.022;3.664;2024-03-29T04:56:14;3.00;;;1.13;;
56043;SDS011;41912;51.022;3.664;2024-03-29T04:58:39;4.55;;;0.90;;
56043;SDS011;41912;51.022;3.664;2024-03-29T05:01:05;3.47;;;0.88;;
56043;SDS011;41912;51.022;3.664;2024-03-29T05:03:32;5.07;;;0.82;;
56043;SDS011;41912;51.022;3.664;2024-03-29T05:05:57;2.78;;;1.15;;
56043;SDS011;41912;51.022;3.664;2024-03-29T05:08:23;3.35;;;1.13;;
56043;SDS011;41912;51.022;3.664;2024-03-29T05:10:50;3.25;;;1.10;;
56043;SDS011;41912;51.022;3.664;2024-03-29T05:13:16;6.47;;;1.10;;
56043;SDS011;41912;51.022;3.664;2024-03-29T05:15:44;4.90;;;1.25;;
56043;SDS011;41912;51.022;3.664;2024-03-29T05:18:13;4.70;;;0.98;;
56043;SDS011;41912;51.022;3.664;2024-03-29T05:20:39;3.30;;;1.10;;
56043;SDS011;41912;51.022;3.664;2024-03-29T05:23:12;5.03;;;1.08;;
56043;SDS011;41912;51.022;3.664;2024-03-29T05:25:39;4.15;;;1.02;;
56043;SDS011;41912;51.022;3.664;2024-03-29T05:28:05;2.47;;;1.00;;
56043;SDS011;41912;51.022;3.664;2024-03-29T05:30:32;3.70;;;0.82;;
56043;SDS011;41912;51.022;3.664;2024-03-29T05:32:59;2.72;;;0.80;;
56043;SDS011;41912;51.022;3.664;2024-03-29T05:35:25;2.45;;;0.80;;
56043;SDS011;41912;51.022;3.664;2024-03-29T05:37:50;1.67;;;1.30;;
56043;SDS011;41912;51.022;3.664;2024-03-29T05:40:18;4.93;;;0.90;;
56043;SDS011;41912;51.022;3.664;2024-03-29T05:42:44;4.10;;;1.13;;
56043;SDS011;41912;51.022;3.664;2024-03-29T05:45:22;4.75;;;0.82;;
56043;SDS011;41912;51.022;3.664;2024-03-29T05:47:53;3.60;;;1.00;;
56043;SDS011;41912;51.022;3.664;2024-03-29T05:50:19;1.63;;;0.70;;
56043;SDS011;41912;51.022;3.664;2024-03-29T05:52:46;1.92;;;0.77;;
56043;SDS011;41912;51.022;3.664;2024-03-29T05:55:12;1.92;;;0.80;;
56043;SDS011;41912;51.022;3.664;2024-03-29T05:57:38;2.92;;;0.90;;
56043;SDS011;41912;51.022;3.664;2024-03-29T06:00:06;2.97;;;0.90;;
56043;SDS011;41912;51.022;3.664;2024-03-29T06:02:34;3.08;;;1.10;;
56043;SDS011;41912;51.022;3.664;2024-03-29T06:05:00;3.72;;;1.05;;
56043;SDS011;41912;51.022;3.664;2024-03-29T06:07:25;3.03;;;1.08;;
56043;SDS011;41912;51.022;3.664;2024-03-29T06:09:54;4.80;;;1.13;;
56043;SDS011;41912;51.022;3.664;2024-03-29T06:12:19;8.63;;;1.10;;
56043;SDS011;41912;51.022;3.664;2024-03-29T06:14:45;2.60;;;1.17;;
56043;SDS011;41912;51.022;3.664;2024-03-29T06:17:29;5.82;;;0.98;;
56043;SDS011;41912;51.022;3.664;2024-03-29T06:19:55;5.55;;;1.13;;
56043;SDS011;41912;51.022;3.664;2024-03-29T06:22:24;4.13;;;0.98;;
56043;SDS011;41912;51.022;3.664;2024-03-29T06:24:50;3.58;;;0.90;;
56043;SDS011;41912;51.022;3.664;2024-03-29T06:27:17;2.83;;;1.00;;
56043;SDS011;41912;51.022;3.664;2024-03-29T06:29:44;3.28;;;0.98;;
56043;SDS011;41912;51.022;3.664;2024-03-29T06:32:10;3.58;;;1.00;;
56043;SDS011;41912;51.022;3.664;2024-03-29T06:34:35;5.90;;;1.33;;
56043;SDS011;41912;51.022;3.664;2024-03-29T06:37:01;2.97;;;1.10;;
56043;SDS011;41912;51.022;3.664;2024-03-29T06:39:27;3.67;;;1.13;;
56043;SDS011;41912;51.022;3.664;2024-03-29T06:41:53;3.55;;;1.15;;
56043;SDS011;41912;51.022;3.664;2024-03-29T06:44:19;4.45;;;1.00;;
56043;SDS011;41912;51.022;3.664;2024-03-29T06:46:47;4.05;;;1.45;;
56043;SDS011;41912;51.022;3.664;2024-03-29T06:49:14;3.42;;;1.38;;
56043;SDS011;41912;51.022;3.664;2024-03-29T06:51:40;3.42;;;1.25;;
56043;SDS011;41912;51.022;3.664;2024-03-29T06:54:06;4.90;;;1.25;;
56043;SDS011;41912;51.022;3.664;2024-03-29T06:56:31;4.53;;;1.10;;
56043;SDS011;41912;51.022;3.664;2024-03-29T06:58:58;2.40;;;1.02;;
56043;SDS011;41912;51.022;3.664;2024-03-29T07:01:24;2.80;;;1.25;;
56043;SDS011;41912;51.022;3.664;2024-03-29T07:03:49;2.38;;;1.00;;
56043;SDS011;41912;51.022;3.664;2024-03-29T07:06:15;3.00;;;1.25;;
56043;SDS011;41912;51.022;3.664;2024-03-29T07:08:41;3.40;;;1.10;;
56043;SDS011;41912;51.022;3.664;2024-03-29T07:11:06;3.78;;;0.95;;
56043;SDS011;41912;51.022;3.664;2024-03-29T07:13:32;2.58;;;1.00;;
56043;SDS011;41912;51.022;3.664;2024-03-29T07:15:58;4.20;;;1.10;;
56043;SDS011;41912;51.022;3.664;2024-03-29T07:18:27;3.28;;;0.88;;
56043;SDS011;41912;51.022;3.664;2024-03-29T07:20:53;2.10;;;1.00;;
56043;SDS011;41912;51.022;3.664;2024-03-29T07:23:19;2.22;;;1.02;;
56043;SDS011;41912;51.022;3.664;2024-03-29T07:25:45;3.80;;;0.98;;
56043;SDS011;41912;51.022;3.664;2024-03-29T07:28:22;5.75;;;1.00;;
56043;SDS011;41912;51.022;3.664;2024-03-29T07:30:48;3.67;;;1.02;;
56043;SDS011;41912;51.022;3.664;2024-03-29T07:33:15;5.25;;;1.50;;
56043;SDS011;41912;51.022;3.664;2024-03-29T07:35:41;6.50;;;1.15;;
56043;SDS011;41912;51.022;3.664;2024-03-29T07:38:07;1.30;;;0.95;;
56043;SDS011;41912;51.022;3.664;2024-03-29T07:40:33;5.80;;;1.30;;
56043;SDS011;41912;51.022;3.664;2024-03-29T07:42:59;4.85;;;1.20;;
56043;SDS011;41912;51.022;3.664;2024-03-29T07:45:25;2.58;;;1.23;;
56043;SDS011;41912;51.022;3.664;2024-03-29T07:47:52;2.63;;;1.10;;
56043;SDS011;41912;51.022;3.664;2024-03-29T07:50:18;3.40;;;0.77;;
56043;SDS011;41912;51.022;3.664;2024-03-29T07:52:47;2.80;;;0.77;;
56043;SDS011;41912;51.022;3.664;2024-03-29T07:55:13;1.85;;;0.90;;
56043;SDS011;41912;51.022;3.664;2024-03-29T07:57:39;3.75;;;0.90;;
56043;SDS011;41912;51.022;3.664;2024-03-29T08:00:05;1.88;;;0.75;;
56043;SDS011;41912;51.022;3.664;2024-03-29T08:02:31;2.75;;;1.02;;
56043;SDS011;41912;51.022;3.664;2024-03-29T08:04:57;4.10;;;1.33;;
56043;SDS011;41912;51.022;3.664;2024-03-29T08:07:23;2.75;;;1.17;;
56043;SDS011;41912;51.022;3.664;2024-03-29T08:09:49;6.60;;;0.95;;
56043;SDS011;41912;51.022;3.664;2024-03-29T08:12:18;5.13;;;0.90;;
56043;SDS011;41912;51.022;3.664;2024-03-29T08:14:43;4.03;;;1.20;;
56043;SDS011;41912;51.022;3.664;2024-03-29T08:17:09;4.40;;;1.00;;
56043;SDS011;41912;51.022;3.664;2024-03-29T08:19:35;3.33;;;1.00;;
56043;SDS011;41912;51.022;3.664;2024-03-29T08:22:01;3.85;;;1.20;;
56043;SDS011;41912;51.022;3.664;2024-03-29T08:24:27;4.38;;;1.40;;
56043;SDS011;41912;51.022;3.664;2024-03-29T08:26:53;3.53;;;1.27;;
56043;SDS011;41912;51.022;3.664;2024-03-29T08:29:18;3.15;;;1.23;;
56043;SDS011;41912;51.022;3.664;2024-03-29T08:31:44;9.02;;;1.60;;
56043;SDS011;41912;51.022;3.664;2024-03-29T08:34:10;4.70;;;1.38;;
56043;SDS011;41912;51.022;3.664;2024-03-29T08:36:38;7.68;;;1.38;;
56043;SDS011;41912;51.022;3.664;2024-03-29T08:39:04;3.13;;;1.35;;
56043;SDS011;41912;51.022;3.664;2024-03-29T08:41:30;3.05;;;1.85;;
56043;SDS011;41912;51.022;3.664;2024-03-29T08:43:56;5.85;;;1.67;;
56043;SDS011;41912;51.022;3.664;2024-03-29T08:46:21;5.90;;;1.80;;
56043;SDS011;41912;51.022;3.664;2024-03-29T08:48:47;6.68;;;2.00;;
56043;SDS011;41912;51.022;3.664;2024-03-29T08:51:13;5.25;;;1.90;;
56043;SDS011;41912;51.022;3.664;2024-03-29T08:53:40;5.20;;;2.08;;
56043;SDS011;41912;51.022;3.664;2024-03-29T08:56:05;5.00;;;2.20;;
56043;SDS011;41912;51.022;3.664;2024-03-29T08:58:31;5.60;;;2.53;;
56043;SDS011;41912;51.022;3.664;2024-03-29T09:00:57;5.82;;;2.55;;
56043;SDS011;41912;51.022;3.664;2024-03-29T09:03:23;7.45;;;2.47;;
56043;SDS011;41912;51.022;3.664;2024-03-29T09:05:49;6.70;;;2.88;;
56043;SDS011;41912;51.022;3.664;2024-03-29T09:08:16;5.55;;;2.15;;
56043;SDS011;41912;51.022;3.664;2024-03-29T09:10:44;4.22;;;2.10;;
56043;SDS011;41912;51.022;3.664;2024-03-29T09:13:09;6.15;;;2.20;;
56043;SDS011;41912;51.022;3.664;2024-03-29T09:15:35;4.78;;;2.25;;
56043;SDS011;41912;51.022;3.664;2024-03-29T09:18:01;5.28;;;2.13;;
56043;SDS011;41912;51.022;3.664;2024-03-29T09:20:35;4.68;;;1.75;;
56043;SDS011;41912;51.022;3.664;2024-03-29T09:23:03;6.25;;;1.80;;
56043;SDS011;41912;51.022;3.664;2024-03-29T09:25:29;4.57;;;1.73;;
56043;SDS011;41912;51.022;3.664;2024-03-29T09:27:57;3.20;;;1.65;;
56043;SDS011;41912;51.022;3.664;2024-03-29T09:30:22;8.20;;;2.22;;
56043;SDS011;41912;51.022;3.664;2024-03-29T09:32:48;5.78;;;2.03;;
56043;SDS011;41912;51.022;3.664;2024-03-29T09:35:15;3.55;;;1.58;;
56043;SDS011;41912;51.022;3.664;2024-03-29T09:37:42;5.57;;;1.60;;
56043;SDS011;41912;51.022;3.664;2024-03-29T09:40:09;7.60;;;1.88;;
56043;SDS011;41912;51.022;3.664;2024-03-29T09:42:36;3.53;;;1.27;;
56043;SDS011;41912;51.022;3.664;2024-03-29T09:45:04;6.45;;;1.65;;
56043;SDS011;41912;51.022;3.664;2024-03-29T09:47:31;4.82;;;2.00;;
56043;SDS011;41912;51.022;3.664;2024-03-29T09:49:58;7.18;;;1.65;;
56043;SDS011;41912;51.022;3.664;2024-03-29T09:52:29;6.32;;;1.83;;
56043;SDS011;41912;51.022;3.664;2024-03-29T09:54:56;4.53;;;1.70;;
56043;SDS011;41912;51.022;3.664;2024-03-29T09:57:22;5.32;;;1.60;;
56043;SDS011;41912;51.022;3.664;2024-03-29T09:59:49;4.57;;;1.20;;
56043;SDS011;41912;51.022;3.664;2024-03-29T10:02:15;2.45;;;1.50;;
56043;SDS011;41912;51.022;3.664;2024-03-29T10:04:42;1.45;;;1.20;;
56043;SDS011;41912;51.022;3.664;2024-03-29T10:07:10;6.65;;;2.08;;
56043;SDS011;41912;51.022;3.664;2024-03-29T10:09:37;7.03;;;1.50;;
56043;SDS011;41912;51.022;3.664;2024-03-29T10:12:04;4.72;;;1.42;;
56043;SDS011;41912;51.022;3.664;2024-03-29T10:14:30;5.15;;;2.05;;
56043;SDS011;41912;51.022;3.664;2024-03-29T10:16:59;3.08;;;1.58;;
56043;SDS011;41912;51.022;3.664;2024-03-29T10:19:25;5.15;;;1.33;;
56043;SDS011;41912;51.022;3.664;2024-03-29T10:21:50;3.38;;;1.50;;
56043;SDS011;41912;51.022;3.664;2024-03-29T10:24:16;4.03;;;1.20;;
56043;SDS011;41912;51.022;3.664;2024-03-29T10:26:42;2.63;;;1.20;;
56043;SDS011;41912;51.022;3.664;2024-03-29T10:29:08;4.95;;;1.63;;
56043;SDS011;41912;51.022;3.664;2024-03-29T10:31:35;3.78;;;1.40;;
56043;SDS011;41912;51.022;3.664;2024-03-29T10:34:04;1.50;;;1.10;;
56043;SDS011;41912;51.022;3.664;2024-03-29T10:36:30;5.68;;;1.30;;
56043;SDS011;41912;51.022;3.664;2024-03-29T10:39:09;2.17;;;1.48;;
56043;SDS011;41912;51.022;3.664;2024-03-29T10:41:42;3.10;;;1.40;;
56043;SDS011;41912;51.022;3.664;2024-03-29T10:44:09;4.50;;;1.23;;
56043;SDS011;41912;51.022;3.664;2024-03-29T10:46:40;2.05;;;1.20;;
56043;SDS011;41912;51.022;3.664;2024-03-29T10:49:10;3.45;;;1.45;;
56043;SDS011;41912;51.022;3.664;2024-03-29T10:51:39;3.67;;;1.20;;
56043;SDS011;41912;51.022;3.664;2024-03-29T10:54:06;2.42;;;1.10;;
56043;SDS011;41912;51.022;3.664;2024-03-29T10:56:34;3.33;;;1.48;;
56043;SDS011;41912;51.022;3.664;2024-03-29T10:59:34;3.58;;;1.10;;
56043;SDS011;41912;51.022;3.664;2024-03-29T11:01:56;2.80;;;0.90;;
56043;SDS011;41912;51.022;3.664;2024-03-29T11:04:29;3.63;;;1.13;;
56043;SDS011;41912;51.022;3.664;2024-03-29T11:06:59;5.18;;;1.33;;
56043;SDS011;41912;51.022;3.664;2024-03-29T11:09:31;1.80;;;1.00;;
56043;SDS011;41912;51.022;3.664;2024-03-29T11:11:58;2.10;;;0.73;;
56043;SDS011;41912;51.022;3.664;2024-03-29T11:14:42;2.35;;;0.90;;
56043;SDS011;41912;51.022;3.664;2024-03-29T11:17:12;4.95;;;1.27;;
56043;SDS011;41912;51.022;3.664;2024-03-29T11:19:39;4.97;;;1.15;;
56043;SDS011;41912;51.022;3.664;2024-03-29T11:22:05;2.85;;;1.25;;
56043;SDS011;41912;51.022;3.664;2024-03-29T11:24:31;1.90;;;1.00;;
56043;SDS011;41912;51.022;3.664;2024-03-29T11:27:06;2.45;;;0.93;;
56043;SDS011;41912;51.022;3.664;2024-03-29T11:29:33;2.30;;;1.00;;
56043;SDS011;41912;51.022;3.664;2024-03-29T11:32:03;2.15;;;0.70;;
56043;SDS011;41912;51.022;3.664;2024-03-29T11:34:33;2.25;;;0.80;;
56043;SDS011;41912;51.022;3.664;2024-03-29T11:37:32;4.38;;;0.70;;
56043;SDS011;41912;51.022;3.664;2024-03-29T11:39:54;1.85;;;0.70;;
56043;SDS011;41912;51.022;3.664;2024-03-29T11:42:34;1.30;;;0.57;;
56043;SDS011;41912;51.022;3.664;2024-03-29T11:45:01;1.67;;;0.77;;
56043;SDS011;41912;51.022;3.664;2024-03-29T11:47:27;1.55;;;1.15;;
56043;SDS011;41912;51.022;3.664;2024-03-29T11:49:56;2.38;;;1.02;;
56043;SDS011;41912;51.022;3.664;2024-03-29T11:52:24;2.05;;;0.82;;
56043;SDS011;41912;51.022;3.664;2024-03-29T11:54:51;2.75;;;0.80;;
56043;SDS011;41912;51.022;3.664;2024-03-29T11:57:19;1.33;;;0.80;;
56043;SDS011;41912;51.022;3.664;2024-03-29T11:59:44;2.88;;;0.70;;
56043;SDS011;41912;51.022;3.664;2024-03-29T12:02:11;3.38;;;0.70;;
56043;SDS011;41912;51.022;3.664;2024-03-29T12:04:40;1.38;;;0.70;;
56043;SDS011;41912;51.022;3.664;2024-03-29T12:07:06;2.30;;;0.60;;
56043;SDS011;41912;51.022;3.664;2024-03-29T12:09:32;4.97;;;0.60;;
56043;SDS011;41912;51.022;3.664;2024-03-29T12:11:57;1.40;;;0.60;;
56043;SDS011;41912;51.022;3.664;2024-03-29T12:14:28;1.50;;;0.70;;
56043;SDS011;41912;51.022;3.664;2024-03-29T12:17:00;3.72;;;0.80;;
56043;SDS011;41912;51.022;3.664;2024-03-29T12:19:25;1.73;;;0.70;;
56043;SDS011;41912;51.022;3.664;2024-03-29T12:21:52;2.97;;;0.90;;
56043;SDS011;41912;51.022;3.664;2024-03-29T12:24:18;1.95;;;0.80;;
56043;SDS011;41912;51.022;3.664;2024-03-29T12:26:44;1.73;;;0.60;;
56043;SDS011;41912;51.022;3.664;2024-03-29T12:29:10;2.63;;;0.80;;
56043;SDS011;41912;51.022;3.664;2024-03-29T12:31:36;3.75;;;0.65;;
56043;SDS011;41912;51.022;3.664;2024-03-29T12:34:03;2.05;;;0.70;;
56043;SDS011;41912;51.022;3.664;2024-03-29T12:36:29;2.30;;;0.73;;
56043;SDS011;41912;51.022;3.664;2024-03-29T12:38:58;1.83;;;0.80;;
56043;SDS011;41912;51.022;3.664;2024-03-29T12:41:28;3.72;;;0.80;;
56043;SDS011;41912;51.022;3.664;2024-03-29T12:43:57;3.42;;;0.90;;
56043;SDS011;41912;51.022;3.664;2024-03-29T12:46:23;3.67;;;0.80;;
56043;SDS011;41912;51.022;3.664;2024-03-29T12:48:56;4.78;;;0.90;;
56043;SDS011;41912;51.022;3.664;2024-03-29T12:51:26;1.90;;;0.80;;
56043;SDS011;41912;51.022;3.664;2024-03-29T12:53:53;1.92;;;0.70;;
56043;SDS011;41912;51.022;3.664;2024-03-29T12:56:20;2.25;;;0.80;;
56043;SDS011;41912;51.022;3.664;2024-03-29T12:58:46;4.93;;;1.33;;
56043;SDS011;41912;51.022;3.664;2024-03-29T13:01:11;2.55;;;0.70;;
56043;SDS011;41912;51.022;3.664;2024-03-29T13:03:37;1.80;;;0.52;;
56043;SDS011;41912;51.022;3.664;2024-03-29T13:06:05;1.55;;;0.50;;
56043;SDS011;41912;51.022;3.664;2024-03-29T13:08:31;2.85;;;0.65;;
56043;SDS011;41912;51.022;3.664;2024-03-29T13:10:57;2.10;;;0.50;;
56043;SDS011;41912;51.022;3.664;2024-03-29T13:13:23;3.05;;;0.68;;
56043;SDS011;41912;51.022;3.664;2024-03-29T13:15:48;2.60;;;0.55;;
56043;SDS011;41912;51.022;3.664;2024-03-29T13:18:15;1.85;;;0.70;;
56043;SDS011;41912;51.022;3.664;2024-03-29T13:20:43;1.45;;;0.60;;
56043;SDS011;41912;51.022;3.664;2024-03-29T13:23:09;2.85;;;0.65;;
56043;SDS011;41912;51.022;3.664;2024-03-29T13:25:35;2.78;;;0.70;;
56043;SDS011;41912;51.022;3.664;2024-03-29T13:28:01;1.98;;;0.60;;
56043;SDS011;41912;51.022;3.664;2024-03-29T13:30:27;2.75;;;0.50;;
56043;SDS011;41912;51.022;3.664;2024-03-29T13:32:53;3.03;;;0.73;;
56043;SDS011;41912;51.022;3.664;2024-03-29T13:35:19;1.52;;;0.60;;
56043;SDS011;41912;51.022;3.664;2024-03-29T13:37:49;2.65;;;0.95;;
56043;SDS011;41912;51.022;3.664;2024-03-29T13:40:17;1.67;;;0.68;;
56043;SDS011;41912;51.022;3.664;2024-03-29T13:42:44;3.35;;;0.70;;
56043;SDS011;41912;51.022;3.664;2024-03-29T13:45:10;2.50;;;0.68;;
56043;SDS011;41912;51.022;3.664;2024-03-29T13:47:36;2.22;;;0.50;;
56043;SDS011;41912;51.022;3.664;2024-03-29T13:50:04;1.20;;;0.60;;
56043;SDS011;41912;51.022;3.664;2024-03-29T13:52:30;0.98;;;0.63;;
56043;SDS011;41912;51.022;3.664;2024-03-29T13:54:56;1.33;;;0.50;;
56043;SDS011;41912;51.022;3.664;2024-03-29T13:57:22;4.07;;;0.77;;
56043;SDS011;41912;51.022;3.664;2024-03-29T13:59:48;3.95;;;0.80;;
56043;SDS011;41912;51.022;3.664;2024-03-29T14:02:15;2.80;;;0.80;;
56043;SDS011;41912;51.022;3.664;2024-03-29T14:04:42;2.28;;;1.00;;
56043;SDS011;41912;51.022;3.664;2024-03-29T14:07:11;3.67;;;0.98;;
56043;SDS011;41912;51.022;3.664;2024-03-29T14:09:38;4.13;;;0.82;;
56043;SDS011;41912;51.022;3.664;2024-03-29T14:12:07;1.75;;;0.60;;
56043;SDS011;41912;51.022;3.664;2024-03-29T14:14:33;2.70;;;0.60;;
56043;SDS011;41912;51.022;3.664;2024-03-29T14:17:00;1.88;;;0.50;;
56043;SDS011;41912;51.022;3.664;2024-03-29T14:19:32;1.05;;;0.50;;
56043;SDS011;41912;51.022;3.664;2024-03-29T14:21:59;2.90;;;0.93;;
56043;SDS011;41912;51.022;3.664;2024-03-29T14:24:25;3.63;;;1.40;;
56043;SDS011;41912;51.022;3.664;2024-03-29T14:26:52;1.25;;;0.63;;
56043;SDS011;41912;51.022;3.664;2024-03-29T14:29:17;2.53;;;0.73;;
56043;SDS011;41912;51.022;3.664;2024-03-29T14:31:46;1.10;;;0.50;;
56043;SDS011;41912;51.022;3.664;2024-03-29T14:34:15;3.33;;;0.57;;
56043;SDS011;41912;51.022;3.664;2024-03-29T14:36:42;1.77;;;0.70;;
56043;SDS011;41912;51.022;3.664;2024-03-29T14:39:08;2.03;;;0.70;;
56043;SDS011;41912;51.022;3.664;2024-03-29T14:41:34;3.60;;;0.70;;
56043;SDS011;41912;51.022;3.664;2024-03-29T14:44:01;2.55;;;0.70;;
56043;SDS011;41912;51.022;3.664;2024-03-29T14:46:27;2.90;;;0.93;;